Airport ID:KGOO
Update Time (UTC):07/12/2021 11:07
Wind Speed (Knots):0
Wind Direction (Magnetic):70
Temperature (°C):8
Dew Point (°C):7
Humidity (%):94
Altimeter (inHg):29.95
Density Altitude (Feet):
Visibility:10+
Clouds (Hundreds of feet):OVC022
Present Weather:
METAR:METAR KGOO 071105Z AUTO 00000KT 10SM OVC023 08/08 A2996 RMK A01

The data displayed is for advisory purposes only and is not to be used for flight planning or operations.